createdAt,value
2019-01-04T00:00:38.594Z,2.25
2019-01-04T00:01:38.558Z,2.22
2019-01-04T00:02:38.559Z,2.18
2019-01-04T00:03:38.537Z,2.15
2019-01-04T00:04:38.528Z,2.18
2019-01-04T00:05:38.538Z,2.17
2019-01-04T00:06:38.502Z,2.19
2019-01-04T00:07:38.492Z,2.19
2019-01-04T00:08:38.484Z,2.17
2019-01-04T00:09:38.476Z,2.17
2019-01-04T00:10:38.479Z,2.12
2019-01-04T00:11:38.449Z,2.14
2019-01-04T00:12:38.434Z,2.15
2019-01-04T00:13:38.425Z,2.18
2019-01-04T00:14:38.415Z,2.15
2019-01-04T00:15:38.425Z,2.14
2019-01-04T00:16:38.393Z,2.25
2019-01-04T00:17:38.387Z,2.28
2019-01-04T00:18:38.369Z,2.30
2019-01-04T00:19:38.358Z,2.18
2019-01-04T00:20:38.388Z,2.14
2019-01-04T00:21:38.339Z,2.22
2019-01-04T00:22:38.330Z,2.17
2019-01-04T00:23:38.314Z,2.28
2019-01-04T00:24:38.305Z,2.15
2019-01-04T00:25:38.292Z,2.17
2019-01-04T00:26:38.303Z,2.33
2019-01-04T00:27:38.274Z,2.29
2019-01-04T00:28:38.259Z,2.11
2019-01-04T00:29:38.247Z,2.12
2019-01-04T00:30:38.240Z,2.06
2019-01-04T00:31:38.247Z,2.04
2019-01-04T00:32:38.214Z,2.07
2019-01-04T00:33:38.205Z,2.03
2019-01-04T00:34:38.192Z,2.01
2019-01-04T00:35:38.195Z,2.06
2019-01-04T00:36:38.193Z,2.03
2019-01-04T00:37:38.161Z,2.11
2019-01-04T00:38:38.150Z,2.00
2019-01-04T00:39:38.139Z,2.01
2019-01-04T00:40:38.129Z,2.00
2019-01-04T00:41:38.140Z,2.03
2019-01-04T00:42:38.104Z,1.95
2019-01-04T00:43:38.092Z,1.97
2019-01-04T00:44:38.081Z,1.99
2019-01-04T00:45:38.074Z,2.04
2019-01-04T00:46:38.082Z,2.00
2019-01-04T00:47:38.048Z,2.01
2019-01-04T00:48:38.040Z,1.95
2019-01-04T00:49:38.026Z,1.99
2019-01-04T00:50:38.018Z,2.01
2019-01-04T00:51:38.027Z,1.99
2019-01-04T00:52:37.997Z,2.06
2019-01-04T00:53:37.983Z,2.01
2019-01-04T00:54:37.973Z,2.06
2019-01-04T00:55:37.962Z,2.12
2019-01-04T00:56:37.973Z,2.07
2019-01-04T00:57:37.946Z,2.00
2019-01-04T00:58:37.928Z,2.01
2019-01-04T00:59:37.921Z,1.99
2019-01-04T01:00:37.908Z,1.95
2019-01-04T01:01:37.933Z,1.97
2019-01-04T01:02:37.884Z,2.03
2019-01-04T01:03:37.875Z,1.95
2019-01-04T01:04:37.862Z,2.06
2019-01-04T01:05:37.850Z,1.93
2019-01-04T01:06:37.844Z,1.99
2019-01-04T01:07:37.861Z,1.93
2019-01-04T01:08:37.816Z,1.91
2019-01-04T01:09:37.810Z,1.93
2019-01-04T01:10:37.799Z,1.95
2019-01-04T01:11:37.785Z,1.91
2019-01-04T01:12:37.799Z,1.92
2019-01-04T01:13:37.762Z,1.87
2019-01-04T01:14:37.752Z,1.91
2019-01-04T01:15:37.742Z,1.87
2019-01-04T01:16:37.728Z,1.85
2019-01-04T01:17:37.739Z,1.87
2019-01-04T01:18:37.718Z,1.74
2019-01-04T01:19:37.701Z,1.77
2019-01-04T01:20:37.686Z,1.82
2019-01-04T01:21:37.674Z,1.81
2019-01-04T01:22:37.689Z,1.74
2019-01-04T01:23:37.652Z,1.71
2019-01-04T01:24:37.644Z,1.73
2019-01-04T01:25:37.633Z,1.77
2019-01-04T01:26:37.623Z,1.71
2019-01-04T01:27:37.649Z,1.69
2019-01-04T01:28:37.599Z,1.71
2019-01-04T01:29:37.586Z,1.73
2019-01-04T01:30:37.576Z,1.67
2019-01-04T01:31:37.565Z,1.74
2019-01-04T01:32:37.553Z,1.71
2019-01-04T01:33:37.565Z,1.67
2019-01-04T01:34:37.531Z,1.71
2019-01-04T01:35:37.521Z,1.69
2019-01-04T01:36:37.509Z,1.57
2019-01-04T01:37:37.498Z,1.56
2019-01-04T01:38:37.510Z,1.69
2019-01-04T01:39:37.476Z,1.64
2019-01-04T01:40:37.467Z,1.63
2019-01-04T01:41:37.453Z,1.73
2019-01-04T01:42:37.442Z,1.74
2019-01-04T01:43:37.454Z,1.75
2019-01-04T01:44:37.427Z,1.78
2019-01-04T01:45:37.411Z,1.84
2019-01-04T01:46:37.398Z,1.85
2019-01-04T01:47:37.391Z,1.87
2019-01-04T01:48:37.427Z,1.91
2019-01-04T01:49:37.366Z,1.89
2019-01-04T01:50:37.354Z,1.99
2019-01-04T01:51:37.343Z,1.95
2019-01-04T01:52:37.336Z,2.00
2019-01-04T01:53:37.322Z,2.01
2019-01-04T01:54:37.334Z,2.03
2019-01-04T01:55:37.302Z,1.92
2019-01-04T01:56:37.289Z,2.03
2019-01-04T01:57:37.278Z,2.03
2019-01-04T01:58:37.267Z,2.18
2019-01-04T01:59:37.277Z,2.12
2019-01-04T02:00:37.246Z,2.06
2019-01-04T02:01:37.235Z,2.14
2019-01-04T02:02:37.224Z,2.10
2019-01-04T02:03:37.210Z,2.14
2019-01-04T02:04:37.224Z,2.21
2019-01-04T02:05:37.189Z,2.12
2019-01-04T02:06:37.183Z,2.10
2019-01-04T02:07:37.181Z,2.11
2019-01-04T02:08:37.155Z,2.06
2019-01-04T02:09:37.171Z,1.87
2019-01-04T02:10:37.137Z,2.10
2019-01-04T02:11:37.132Z,1.93
2019-01-04T02:12:37.113Z,2.10
2019-01-04T02:13:37.100Z,1.95
2019-01-04T02:14:37.113Z,2.10
2019-01-04T02:15:37.083Z,2.00
2019-01-04T02:16:37.077Z,1.95
2019-01-04T02:17:37.057Z,1.99
2019-01-04T02:18:37.046Z,1.97
2019-01-04T02:19:37.083Z,2.00
2019-01-04T02:20:37.024Z,1.97
2019-01-04T02:21:37.014Z,1.97
2019-01-04T02:22:37.004Z,1.97
2019-01-04T02:23:36.993Z,1.91
2019-01-04T02:24:36.981Z,1.93
2019-01-04T02:25:36.995Z,1.99
2019-01-04T02:26:36.960Z,2.11
2019-01-04T02:27:36.948Z,2.04
2019-01-04T02:28:36.939Z,2.03
2019-01-04T02:29:36.932Z,2.04
2019-01-04T02:30:36.941Z,1.92
2019-01-04T02:31:36.907Z,2.11
2019-01-04T02:32:36.895Z,2.01
2019-01-04T02:33:36.883Z,2.14
2019-01-04T02:34:36.872Z,2.03
2019-01-04T02:35:36.882Z,2.07
2019-01-04T02:36:36.849Z,2.03
2019-01-04T02:37:36.838Z,2.04
2019-01-04T02:38:36.827Z,2.04
2019-01-04T02:39:36.819Z,2.00
2019-01-04T02:40:36.829Z,1.95
2019-01-04T02:41:36.797Z,2.03
2019-01-04T02:42:36.786Z,2.14
2019-01-04T02:43:36.782Z,2.11
2019-01-04T02:44:36.762Z,2.03
2019-01-04T02:45:36.772Z,2.03
2019-01-04T02:46:36.740Z,2.01
2019-01-04T02:47:36.730Z,1.99
2019-01-04T02:48:36.718Z,1.97
2019-01-04T02:49:36.714Z,2.03
2019-01-04T02:50:36.727Z,2.07
2019-01-04T02:51:36.687Z,2.15
2019-01-04T02:52:36.682Z,2.12
2019-01-04T02:53:36.664Z,2.18
2019-01-04T02:54:36.654Z,2.19
2019-01-04T02:55:36.681Z,2.14
2019-01-04T02:56:36.630Z,2.19
2019-01-04T02:57:36.618Z,2.18
2019-01-04T02:58:36.608Z,2.19
2019-01-04T02:59:36.596Z,2.18
2019-01-04T03:00:36.586Z,2.17
2019-01-04T03:01:36.601Z,2.19
2019-01-04T03:02:36.567Z,2.24
2019-01-04T03:03:36.553Z,2.24
2019-01-04T03:04:36.574Z,2.28
2019-01-04T03:05:36.532Z,2.21
2019-01-04T03:06:36.551Z,2.24
2019-01-04T03:07:36.508Z,2.30
2019-01-04T03:08:36.499Z,2.29
2019-01-04T03:09:36.487Z,2.22
2019-01-04T03:10:36.475Z,2.21
2019-01-04T03:11:36.494Z,2.28
2019-01-04T03:12:36.453Z,2.24
2019-01-04T03:13:36.447Z,2.25
2019-01-04T03:14:36.432Z,2.25
2019-01-04T03:15:36.419Z,2.15
2019-01-04T03:16:36.433Z,2.29
2019-01-04T03:17:36.401Z,2.36
2019-01-04T03:18:36.390Z,2.28
2019-01-04T03:19:36.376Z,2.36
2019-01-04T03:20:36.364Z,2.30
2019-01-04T03:21:36.376Z,2.29
2019-01-04T03:22:36.342Z,2.28
2019-01-04T03:23:36.336Z,2.28
2019-01-04T03:24:36.323Z,2.28
2019-01-04T03:25:36.312Z,2.32
2019-01-04T03:26:36.356Z,2.24
2019-01-04T03:27:36.288Z,2.25
2019-01-04T03:28:36.281Z,2.25
2019-01-04T03:29:36.266Z,2.24
2019-01-04T03:30:36.254Z,2.28
2019-01-04T03:31:36.252Z,2.32
2019-01-04T03:32:36.264Z,2.24
2019-01-04T03:33:36.221Z,2.35
2019-01-04T03:34:36.213Z,2.25
2019-01-04T03:35:36.212Z,2.28
2019-01-04T03:36:36.190Z,2.28
2019-01-04T03:37:36.204Z,2.29
2019-01-04T03:38:36.167Z,2.28
2019-01-04T03:39:36.158Z,2.28
2019-01-04T03:40:36.144Z,2.25
2019-01-04T03:41:36.132Z,2.37
2019-01-04T03:42:36.148Z,2.28
2019-01-04T03:43:36.110Z,2.28
2019-01-04T03:44:36.102Z,2.37
2019-01-04T03:45:36.092Z,2.39
2019-01-04T03:46:36.079Z,2.37
2019-01-04T03:47:36.092Z,2.35
2019-01-04T03:48:36.055Z,2.42
2019-01-04T03:49:36.051Z,2.36
2019-01-04T03:50:36.038Z,2.32
2019-01-04T03:51:36.033Z,2.39
2019-01-04T03:52:36.094Z,2.35
2019-01-04T03:53:35.999Z,2.40
2019-01-04T03:54:35.991Z,2.39
2019-01-04T03:55:35.981Z,2.36
2019-01-04T03:56:35.968Z,2.37
2019-01-04T03:57:35.981Z,2.37
2019-01-04T03:58:35.954Z,2.39
2019-01-04T03:59:35.935Z,2.39
2019-01-04T04:00:35.923Z,2.45
2019-01-04T04:01:35.910Z,2.37
2019-01-04T04:02:35.938Z,2.37
2019-01-04T04:03:35.889Z,2.53
2019-01-04T04:04:35.877Z,2.43
2019-01-04T04:05:35.865Z,2.37
2019-01-04T04:06:35.855Z,2.51
2019-01-04T04:07:35.844Z,2.42
2019-01-04T04:08:35.853Z,2.40
2019-01-04T04:09:35.821Z,2.36
2019-01-04T04:10:35.810Z,2.40
2019-01-04T04:11:35.799Z,2.50
2019-01-04T04:12:35.787Z,2.43
2019-01-04T04:13:35.799Z,2.50
2019-01-04T04:14:35.765Z,2.43
2019-01-04T04:15:35.759Z,2.47
2019-01-04T04:16:35.747Z,2.47
2019-01-04T04:17:35.731Z,2.40
2019-01-04T04:18:35.743Z,2.40
2019-01-04T04:19:35.713Z,2.37
2019-01-04T04:20:35.712Z,2.50
2019-01-04T04:21:35.708Z,2.42
2019-01-04T04:22:35.676Z,2.47
2019-01-04T04:23:35.690Z,2.50
2019-01-04T04:24:35.654Z,2.45
2019-01-04T04:25:35.645Z,2.47
2019-01-04T04:26:35.638Z,2.45
2019-01-04T04:27:35.624Z,2.40
2019-01-04T04:28:35.632Z,2.43
2019-01-04T04:29:35.598Z,2.45
2019-01-04T04:30:35.589Z,2.47
2019-01-04T04:31:35.578Z,2.43
2019-01-04T04:32:35.566Z,2.48
2019-01-04T04:33:35.592Z,2.47
2019-01-04T04:34:35.545Z,2.45
2019-01-04T04:35:35.534Z,2.47
2019-01-04T04:36:35.563Z,2.50
2019-01-04T04:37:35.511Z,2.58
2019-01-04T04:38:35.503Z,2.61
2019-01-04T04:39:35.508Z,2.53
2019-01-04T04:40:35.481Z,2.60
2019-01-04T04:41:35.466Z,2.66
2019-01-04T04:42:35.457Z,2.65
2019-01-04T04:43:35.444Z,2.68
2019-01-04T04:44:35.457Z,2.55
2019-01-04T04:45:35.419Z,2.54
2019-01-04T04:46:35.409Z,2.68
2019-01-04T04:47:35.397Z,2.58
2019-01-04T04:48:35.386Z,2.65
2019-01-04T04:49:35.404Z,2.45
2019-01-04T04:50:35.369Z,2.63
2019-01-04T04:51:35.353Z,2.55
2019-01-04T04:52:35.347Z,2.57
2019-01-04T04:53:36.061Z,2.55
2019-01-04T04:54:35.344Z,2.55
2019-01-04T04:55:35.312Z,2.57
2019-01-04T04:56:35.300Z,2.48
2019-01-04T04:57:35.292Z,2.60
2019-01-04T04:58:35.279Z,2.50
2019-01-04T04:59:35.300Z,2.51
2019-01-04T05:00:35.280Z,2.50
2019-01-04T05:01:35.275Z,2.58
2019-01-04T05:02:35.239Z,2.48
2019-01-04T05:03:35.226Z,2.57
2019-01-04T05:04:35.221Z,2.60
2019-01-04T05:05:35.221Z,2.55
2019-01-04T05:06:35.189Z,2.47
2019-01-04T05:07:35.178Z,2.43
2019-01-04T05:08:35.175Z,2.42
2019-01-04T05:09:35.159Z,2.33
2019-01-04T05:10:35.175Z,2.29
2019-01-04T05:11:35.134Z,2.37
2019-01-04T05:12:35.171Z,2.42
2019-01-04T05:13:35.123Z,2.36
2019-01-04T05:14:35.105Z,2.37
2019-01-04T05:15:35.111Z,2.28
2019-01-04T05:16:35.079Z,2.33
2019-01-04T05:17:35.073Z,2.33
2019-01-04T05:18:35.060Z,2.29
2019-01-04T05:19:35.050Z,2.36
2019-01-04T05:20:35.057Z,2.39
2019-01-04T05:21:35.022Z,2.37
2019-01-04T05:22:35.013Z,2.40
2019-01-04T05:23:35.003Z,2.40
2019-01-04T05:24:34.995Z,2.36
2019-01-04T05:25:35.000Z,2.39
2019-01-04T05:26:34.981Z,2.50
2019-01-04T05:27:34.959Z,2.53
2019-01-04T05:28:34.961Z,2.50
2019-01-04T05:29:34.936Z,2.54
2019-01-04T05:30:34.949Z,2.43
2019-01-04T05:31:44.878Z,2.37
2019-01-04T05:32:34.905Z,2.43
2019-01-04T05:33:34.890Z,2.36
2019-01-04T05:34:34.879Z,2.43
2019-01-04T05:35:34.894Z,2.43
2019-01-04T05:36:34.868Z,2.50
2019-01-04T05:37:34.848Z,2.51
2019-01-04T05:38:34.834Z,2.51
2019-01-04T05:39:34.826Z,2.50
2019-01-04T05:40:34.847Z,2.51
2019-01-04T05:41:34.802Z,2.48
2019-01-04T05:42:34.794Z,2.37
2019-01-04T05:43:34.781Z,2.47
2019-01-04T05:44:34.775Z,2.40
2019-01-04T05:45:34.759Z,2.33
2019-01-04T05:46:34.768Z,2.39
2019-01-04T05:47:34.734Z,2.28
2019-01-04T05:48:34.723Z,2.28
2019-01-04T05:49:34.722Z,2.30
2019-01-04T05:50:34.707Z,2.30
2019-01-04T05:51:34.714Z,2.24
2019-01-04T05:52:34.680Z,2.19
2019-01-04T05:53:34.670Z,2.21
2019-01-04T05:54:34.656Z,2.17
2019-01-04T05:55:34.647Z,2.18
2019-01-04T05:56:34.657Z,2.15
2019-01-04T05:57:34.629Z,2.07
2019-01-04T05:58:34.616Z,2.12
2019-01-04T05:59:34.602Z,2.07
2019-01-04T06:00:34.594Z,2.21
2019-01-04T06:01:34.604Z,2.21
2019-01-04T06:02:34.568Z,2.19
2019-01-04T06:03:34.561Z,2.25
2019-01-04T06:04:34.554Z,2.17
2019-01-04T06:05:34.534Z,2.14
2019-01-04T06:06:34.560Z,2.18
2019-01-04T06:07:34.511Z,2.21
2019-01-04T06:08:34.503Z,2.17
2019-01-04T06:09:34.490Z,2.17
2019-01-04T06:10:34.480Z,2.25
2019-01-04T06:11:34.469Z,2.18
2019-01-04T06:12:34.479Z,2.25
2019-01-04T06:13:34.445Z,2.28
2019-01-04T06:14:34.442Z,2.24
2019-01-04T06:15:34.423Z,2.37
2019-01-04T06:16:34.411Z,2.28
2019-01-04T06:17:34.421Z,2.30
2019-01-04T06:18:34.388Z,2.25
2019-01-04T06:19:34.378Z,2.28
2019-01-04T06:20:34.375Z,2.32
2019-01-04T06:21:34.357Z,2.28
2019-01-04T06:22:34.366Z,2.32
2019-01-04T06:23:34.337Z,2.25
2019-01-04T06:24:34.323Z,2.29
2019-01-04T06:25:34.311Z,2.36
2019-01-04T06:26:34.301Z,2.48
2019-01-04T06:27:34.311Z,2.36
2019-01-04T06:28:34.278Z,2.39
2019-01-04T06:29:34.268Z,2.36
2019-01-04T06:30:34.255Z,2.42
2019-01-04T06:31:34.247Z,2.43
2019-01-04T06:32:34.256Z,2.42
2019-01-04T06:33:34.223Z,2.42
2019-01-04T06:34:34.211Z,2.50
2019-01-04T06:35:34.203Z,2.51
2019-01-04T06:36:34.190Z,2.47
2019-01-04T06:37:34.210Z,2.54
2019-01-04T06:38:34.167Z,2.47
2019-01-04T06:39:34.156Z,2.47
2019-01-04T06:40:34.147Z,2.55
2019-01-04T06:41:34.137Z,2.57
2019-01-04T06:42:34.124Z,2.48
2019-01-04T06:43:34.135Z,2.47
2019-01-04T06:44:34.104Z,2.40
2019-01-04T06:45:34.092Z,2.47
2019-01-04T06:46:34.082Z,2.48
2019-01-04T06:47:34.068Z,2.48
2019-01-04T06:48:34.081Z,2.50
2019-01-04T06:49:34.046Z,2.60
2019-01-04T06:50:34.036Z,2.50
2019-01-04T06:51:34.027Z,2.48
2019-01-04T06:52:34.012Z,2.53
2019-01-04T06:53:34.024Z,2.47
2019-01-04T06:54:33.990Z,2.55
2019-01-04T06:55:33.979Z,2.54
2019-01-04T06:56:33.968Z,2.65
2019-01-04T06:57:33.958Z,2.61
2019-01-04T06:58:33.973Z,2.58
2019-01-04T06:59:33.935Z,2.55
2019-01-04T07:00:33.925Z,2.58
2019-01-04T07:01:33.914Z,2.63
2019-01-04T07:02:33.902Z,2.54
2019-01-04T07:03:33.913Z,2.65
2019-01-04T07:04:33.880Z,2.69
2019-01-04T07:05:33.869Z,2.63
2019-01-04T07:06:33.858Z,2.60
2019-01-04T07:07:33.847Z,2.68
2019-01-04T07:08:33.858Z,2.72
2019-01-04T07:09:33.828Z,2.68
2019-01-04T07:10:33.814Z,2.66
2019-01-04T07:11:33.805Z,2.61
2019-01-04T07:12:33.793Z,2.76
2019-01-04T07:13:33.823Z,2.73
2019-01-04T07:14:33.770Z,2.76
2019-01-04T07:15:33.763Z,2.75
2019-01-04T07:16:33.748Z,2.79
2019-01-04T07:17:33.738Z,2.76
2019-01-04T07:18:33.726Z,2.72
2019-01-04T07:19:33.738Z,2.78
2019-01-04T07:20:33.730Z,2.78
2019-01-04T07:21:33.694Z,2.79
2019-01-04T07:22:33.683Z,2.89
2019-01-04T07:23:33.671Z,2.81
2019-01-04T07:24:33.681Z,2.82
2019-01-04T07:25:33.652Z,2.82
2019-01-04T07:26:33.643Z,2.81
2019-01-04T07:27:33.627Z,2.84
2019-01-04T07:28:33.614Z,2.89
2019-01-04T07:29:33.627Z,2.89
2019-01-04T07:30:41.948Z,2.87
2019-01-04T07:31:33.582Z,2.91
2019-01-04T07:32:33.571Z,2.87
2019-01-04T07:33:33.561Z,2.89
2019-01-04T07:34:33.575Z,2.87
2019-01-04T07:35:33.538Z,2.93
2019-01-04T07:36:33.527Z,2.91
2019-01-04T07:37:33.515Z,2.87
2019-01-04T07:38:33.508Z,2.84
2019-01-04T07:39:33.518Z,2.78
2019-01-04T07:40:33.481Z,2.79
2019-01-04T07:41:33.475Z,2.86
2019-01-04T07:42:33.460Z,2.81
2019-01-04T07:43:33.448Z,2.82
2019-01-04T07:44:33.459Z,2.79
2019-01-04T07:45:33.426Z,2.90
2019-01-04T07:46:33.418Z,2.94
2019-01-04T07:47:33.404Z,2.90
2019-01-04T07:48:33.395Z,2.84
2019-01-04T07:49:33.404Z,3.00
2019-01-04T07:50:33.370Z,2.99
2019-01-04T07:51:33.359Z,2.99
2019-01-04T07:52:33.349Z,2.94
2019-01-04T07:53:33.336Z,3.00
2019-01-04T07:54:33.348Z,3.04
2019-01-04T07:55:33.316Z,2.91
2019-01-04T07:56:33.306Z,3.04
2019-01-04T07:57:33.294Z,3.11
2019-01-04T07:58:33.286Z,3.04
2019-01-04T07:59:33.294Z,3.05
2019-01-04T08:00:33.260Z,3.00
2019-01-04T08:01:33.248Z,3.04
2019-01-04T08:02:33.242Z,3.08
2019-01-04T08:03:33.227Z,3.12
2019-01-04T08:04:33.255Z,3.00
2019-01-04T08:05:33.204Z,3.05
2019-01-04T08:06:33.194Z,3.12
2019-01-04T08:07:33.184Z,3.12
2019-01-04T08:08:33.173Z,3.02
2019-01-04T08:09:33.164Z,3.00
2019-01-04T08:10:33.169Z,3.05
2019-01-04T08:11:33.138Z,3.05
2019-01-04T08:12:33.128Z,3.08
2019-01-04T08:13:33.120Z,3.08
2019-01-04T08:14:33.104Z,3.18
2019-01-04T08:15:33.120Z,3.14
2019-01-04T08:16:33.089Z,3.11
2019-01-04T08:17:33.072Z,3.12
2019-01-04T08:18:33.059Z,3.11
2019-01-04T08:19:33.049Z,3.15
2019-01-04T08:20:33.065Z,3.14
2019-01-04T08:21:33.027Z,3.25
2019-01-04T08:22:33.416Z,3.22
2019-01-04T08:23:33.012Z,3.11
2019-01-04T08:24:32.996Z,3.20
2019-01-04T08:25:33.004Z,3.17
2019-01-04T08:26:32.970Z,3.17
2019-01-04T08:27:32.959Z,3.23
2019-01-04T08:28:32.948Z,3.23
2019-01-04T08:29:32.938Z,3.20
2019-01-04T08:30:32.951Z,3.14
2019-01-04T08:31:32.914Z,3.30
2019-01-04T08:32:32.904Z,3.32
2019-01-04T08:33:32.894Z,3.33
2019-01-04T08:34:32.880Z,3.35
2019-01-04T08:35:32.895Z,3.46
2019-01-04T08:36:32.858Z,3.29
2019-01-04T08:37:32.850Z,3.35
2019-01-04T08:38:32.836Z,3.35
2019-01-04T08:39:32.825Z,3.33
2019-01-04T08:40:32.837Z,3.29
2019-01-04T08:41:32.811Z,3.30
2019-01-04T08:42:32.793Z,3.29
2019-01-04T08:43:32.782Z,3.29
2019-01-04T08:44:32.772Z,3.35
2019-01-04T08:45:32.779Z,3.41
2019-01-04T08:46:32.748Z,3.30
2019-01-04T08:47:32.737Z,3.32
2019-01-04T08:48:32.726Z,3.29
2019-01-04T08:49:32.715Z,3.29
2019-01-04T08:50:32.729Z,3.27
2019-01-04T08:51:32.690Z,3.32
2019-01-04T08:52:32.679Z,3.44
2019-01-04T08:53:32.669Z,3.32
2019-01-04T08:54:32.657Z,3.36
2019-01-04T08:55:32.645Z,3.45
2019-01-04T08:56:32.731Z,3.49
2019-01-04T08:57:32.627Z,3.55
2019-01-04T08:58:32.618Z,3.52
2019-01-04T08:59:32.606Z,3.60
2019-01-04T09:00:32.603Z,3.60
2019-01-04T09:01:32.603Z,3.64
2019-01-04T09:02:32.568Z,3.74
2019-01-04T09:03:32.557Z,3.78
2019-01-04T09:04:32.548Z,3.90
2019-01-04T09:05:32.536Z,3.80
2019-01-04T09:06:32.549Z,3.91
2019-01-04T09:07:32.513Z,3.92
2019-01-04T09:08:32.503Z,3.92
2019-01-04T09:09:32.489Z,3.96
2019-01-04T09:10:32.522Z,4.00
2019-01-04T09:11:32.492Z,4.02
2019-01-04T09:12:44.688Z,4.00
2019-01-04T09:13:40.731Z,4.02
2019-01-04T09:14:32.434Z,4.05
2019-01-04T09:15:32.424Z,4.13
2019-01-04T09:16:32.436Z,4.02
2019-01-04T09:17:32.399Z,4.05
2019-01-04T09:18:32.390Z,4.09
2019-01-04T09:19:32.378Z,4.12
2019-01-04T09:20:32.366Z,4.08
2019-01-04T09:21:32.382Z,4.12
2019-01-04T09:22:32.346Z,4.13
2019-01-04T09:23:32.335Z,4.18
2019-01-04T09:24:32.322Z,4.20
2019-01-04T09:25:32.312Z,4.21
2019-01-04T09:26:32.322Z,4.28
2019-01-04T09:27:32.289Z,4.24
2019-01-04T09:28:32.278Z,4.18
2019-01-04T09:29:32.265Z,4.20
2019-01-04T09:30:32.254Z,4.26
2019-01-04T09:31:32.267Z,4.20
2019-01-04T09:32:32.236Z,4.20
2019-01-04T09:33:32.228Z,4.28
2019-01-04T09:34:32.211Z,4.26
2019-01-04T09:35:32.200Z,4.30
2019-01-04T09:36:32.209Z,4.26
2019-01-04T09:37:32.182Z,4.21
2019-01-04T09:38:32.166Z,4.31
2019-01-04T09:39:32.154Z,4.31
2019-01-04T09:40:32.143Z,4.34
2019-01-04T09:41:32.153Z,4.38
2019-01-04T09:42:32.121Z,4.27
2019-01-04T09:43:32.112Z,4.28
2019-01-04T09:44:32.098Z,4.36
2019-01-04T09:45:32.089Z,4.31
2019-01-04T09:46:32.098Z,4.36
2019-01-04T09:47:32.063Z,4.45
2019-01-04T09:48:32.054Z,4.38
2019-01-04T09:49:32.043Z,4.45
2019-01-04T09:50:32.038Z,4.48
2019-01-04T09:51:32.046Z,4.38
2019-01-04T09:52:32.010Z,4.38
2019-01-04T09:53:32.002Z,4.43
2019-01-04T09:54:31.986Z,4.38
2019-01-04T09:55:31.978Z,4.27
2019-01-04T09:56:31.994Z,4.31
2019-01-04T09:57:31.954Z,4.27
2019-01-04T09:58:31.942Z,4.27
2019-01-04T09:59:31.936Z,4.30
2019-01-04T10:00:31.923Z,4.26
2019-01-04T10:01:31.914Z,4.21
2019-01-04T10:02:31.923Z,4.17
2019-01-04T10:03:31.953Z,4.24
2019-01-04T10:04:32.037Z,4.21
2019-01-04T10:05:31.967Z,4.24
2019-01-04T10:06:31.856Z,4.24
2019-01-04T10:07:31.863Z,4.23
2019-01-04T10:08:31.833Z,4.28
2019-01-04T10:09:31.822Z,4.21
2019-01-04T10:10:31.808Z,4.21
2019-01-04T10:11:31.798Z,4.28
2019-01-04T10:12:31.807Z,4.31
2019-01-04T10:13:31.811Z,4.26
2019-01-04T10:14:31.777Z,4.26
2019-01-04T10:15:31.759Z,4.16
2019-01-04T10:16:31.742Z,4.30
2019-01-04T10:17:31.753Z,4.27
2019-01-04T10:18:31.735Z,4.27
2019-01-04T10:19:31.712Z,4.24
2019-01-04T10:20:31.770Z,4.27
2019-01-04T10:21:31.686Z,4.17
2019-01-04T10:22:31.700Z,4.23
2019-01-04T10:23:31.663Z,4.30
2019-01-04T10:24:31.657Z,4.24
2019-01-04T10:25:31.643Z,4.26
2019-01-04T10:26:31.632Z,4.34
2019-01-04T10:27:31.643Z,4.28
2019-01-04T10:28:31.611Z,4.31
2019-01-04T10:29:31.856Z,4.43
2019-01-04T10:30:31.589Z,4.35
2019-01-04T10:31:31.577Z,4.38
2019-01-04T10:32:31.616Z,4.31
2019-01-04T10:33:31.553Z,4.31
2019-01-04T10:34:31.544Z,4.34
2019-01-04T10:35:31.529Z,4.38
2019-01-04T10:36:31.519Z,4.35
2019-01-04T10:37:31.511Z,4.34
2019-01-04T10:38:31.653Z,4.35
2019-01-04T10:39:31.642Z,4.31
2019-01-04T10:40:31.481Z,4.39
2019-01-04T10:41:31.462Z,4.35
2019-01-04T10:42:31.452Z,4.48
2019-01-04T10:43:31.848Z,4.38
2019-01-04T10:44:31.429Z,4.36
2019-01-04T10:45:31.417Z,4.31
2019-01-04T10:46:40.733Z,4.36
2019-01-04T10:47:31.404Z,4.45
2019-01-04T10:48:31.408Z,4.48
2019-01-04T10:49:31.377Z,4.45
2019-01-04T10:50:31.364Z,4.56
2019-01-04T10:51:31.350Z,4.56
2019-01-04T10:52:31.339Z,4.57
2019-01-04T10:53:31.352Z,4.59
2019-01-04T10:54:31.316Z,4.67
2019-01-04T10:55:31.308Z,4.57
2019-01-04T10:56:31.295Z,4.67
2019-01-04T10:57:31.286Z,4.72
2019-01-04T10:58:31.310Z,4.66
2019-01-04T10:59:31.265Z,4.78
2019-01-04T11:00:31.251Z,4.69
2019-01-04T11:01:31.241Z,4.78
2019-01-04T11:02:31.230Z,4.69
2019-01-04T11:03:31.216Z,4.67
2019-01-04T11:04:31.228Z,4.64
2019-01-04T11:05:31.197Z,4.71
2019-01-04T11:06:31.183Z,4.74
2019-01-04T11:07:31.171Z,4.72
2019-01-04T11:08:31.160Z,4.64
2019-01-04T11:09:31.171Z,4.64
2019-01-04T11:10:31.139Z,4.66
2019-01-04T11:11:39.463Z,4.71
2019-01-04T11:12:39.567Z,4.85
2019-01-04T11:13:31.105Z,4.82
2019-01-04T11:14:31.116Z,4.97
2019-01-04T11:15:31.081Z,4.82
2019-01-04T11:16:31.071Z,4.89
2019-01-04T11:17:31.059Z,4.93
2019-01-04T11:18:31.052Z,4.98
2019-01-04T11:19:31.354Z,4.77
2019-01-04T11:20:31.029Z,4.89
2019-01-04T11:21:31.013Z,4.74
2019-01-04T11:22:31.003Z,4.75
2019-01-04T11:23:31.000Z,4.74
2019-01-04T11:24:31.005Z,4.77
2019-01-04T11:25:30.982Z,4.75
2019-01-04T11:26:30.960Z,4.77
2019-01-04T11:27:30.948Z,4.78
2019-01-04T11:28:30.935Z,4.86
2019-01-04T11:29:30.945Z,4.93
2019-01-04T11:30:30.917Z,4.94
2019-01-04T11:31:30.905Z,4.82
2019-01-04T11:32:30.892Z,4.97
2019-01-04T11:33:30.882Z,4.98
2019-01-04T11:34:30.893Z,4.98
2019-01-04T11:35:30.857Z,5.01
2019-01-04T11:36:30.853Z,4.93
2019-01-04T11:37:30.837Z,4.94
2019-01-04T11:38:30.825Z,5.01
2019-01-04T11:39:30.813Z,4.98
2019-01-04T11:40:30.824Z,5.01
2019-01-04T11:41:30.798Z,5.04
2019-01-04T11:42:30.782Z,4.97
2019-01-04T11:43:30.770Z,5.00
2019-01-04T11:44:30.757Z,5.00
2019-01-04T11:45:30.773Z,5.03
2019-01-04T11:46:30.733Z,4.97
2019-01-04T11:47:30.723Z,4.98
2019-01-04T11:48:30.711Z,5.07
2019-01-04T11:49:31.572Z,5.07
2019-01-04T11:50:30.711Z,5.01
2019-01-04T11:51:30.677Z,5.03
2019-01-04T11:52:31.239Z,5.07
2019-01-04T11:53:30.654Z,5.11
2019-01-04T11:54:30.645Z,5.14
2019-01-04T11:55:30.682Z,5.14
2019-01-04T11:56:30.626Z,5.15
2019-01-04T11:57:30.619Z,5.27
2019-01-04T11:58:30.601Z,5.14
2019-01-04T11:59:30.591Z,5.22
2019-01-04T12:00:30.580Z,5.25
2019-01-04T12:01:30.587Z,5.27
2019-01-04T12:02:40.315Z,5.24
2019-01-04T12:03:30.553Z,5.22
2019-01-04T12:04:30.534Z,5.22
2019-01-04T12:05:30.525Z,5.19
2019-01-04T12:06:30.548Z,5.15
2019-01-04T12:07:30.501Z,5.09
2019-01-04T12:08:30.491Z,5.09
2019-01-04T12:09:30.484Z,5.14
2019-01-04T12:10:30.486Z,5.14
2019-01-04T12:11:30.484Z,5.16
2019-01-04T12:12:30.446Z,5.21
2019-01-04T12:13:30.433Z,5.21
2019-01-04T12:14:30.424Z,5.30
2019-01-04T12:15:30.427Z,5.29
2019-01-04T12:16:30.454Z,5.27
2019-01-04T12:17:30.394Z,5.32
2019-01-04T12:18:30.386Z,5.32
2019-01-04T12:19:30.375Z,5.22
2019-01-04T12:20:30.354Z,5.16
2019-01-04T12:21:30.363Z,5.14
2019-01-04T12:22:30.335Z,5.19
2019-01-04T12:23:39.836Z,5.16
2019-01-04T12:24:30.308Z,5.24
2019-01-04T12:25:30.300Z,5.22
2019-01-04T12:26:30.309Z,5.25
2019-01-04T12:27:30.275Z,5.27
2019-01-04T12:28:30.264Z,5.29
2019-01-04T12:29:39.938Z,5.30
2019-01-04T12:30:30.248Z,5.21
2019-01-04T12:31:39.415Z,5.11
2019-01-04T12:32:30.218Z,5.12
2019-01-04T12:33:30.214Z,5.12
2019-01-04T12:34:30.199Z,5.19
2019-01-04T12:35:30.184Z,5.11
2019-01-04T12:36:30.367Z,5.09
2019-01-04T12:37:30.168Z,5.22
2019-01-04T12:38:30.155Z,5.19
2019-01-04T12:39:30.141Z,5.27
2019-01-04T12:40:30.129Z,5.12
2019-01-04T12:41:39.137Z,5.27
2019-01-04T12:42:30.113Z,5.30
2019-01-04T12:43:30.099Z,5.21
2019-01-04T12:45:24.548Z,5.24
2019-01-04T12:46:24.534Z,5.27
2019-01-04T12:47:24.546Z,5.30
2019-01-04T12:48:24.514Z,5.34
2019-01-04T12:49:24.543Z,5.29
2019-01-04T12:50:24.490Z,5.29
2019-01-04T12:51:24.508Z,5.30
2019-01-04T12:52:24.492Z,5.30
2019-01-04T12:53:24.475Z,5.30
2019-01-04T12:54:24.449Z,5.24
2019-01-04T12:55:24.443Z,5.30
2019-01-04T12:56:33.691Z,5.24
2019-01-04T12:57:24.435Z,5.33
2019-01-04T12:58:24.404Z,5.25
2019-01-04T12:59:24.448Z,5.25
2019-01-04T13:00:24.379Z,5.29
2019-01-04T13:01:24.374Z,5.19
2019-01-04T13:02:24.386Z,5.25
2019-01-04T13:03:24.348Z,5.25
2019-01-04T13:04:24.381Z,5.25
2019-01-04T13:05:24.326Z,5.21
2019-01-04T13:06:24.318Z,5.32
2019-01-04T13:07:24.376Z,5.34
2019-01-04T13:08:24.292Z,5.24
2019-01-04T13:09:24.281Z,5.24
2019-01-04T13:10:24.271Z,5.25
2019-01-04T13:11:24.261Z,5.33
2019-01-04T13:12:24.277Z,5.39
2019-01-04T13:13:24.236Z,5.29
2019-01-04T13:14:24.236Z,5.25
2019-01-04T13:15:24.214Z,5.39
2019-01-04T13:16:24.206Z,5.30
2019-01-04T13:17:24.191Z,5.29
2019-01-04T13:18:24.204Z,5.32
2019-01-04T13:19:25.757Z,5.33